メインページ
METAR-TAF:

METAR-TAF

空港 :

バックホルツ陸軍飛行場

クェゼリン環礁, マーシャル諸島

緯度: 08-43N, 経度: 167-44E, 海抜: 3m

現時点の気象観測

当レポートは13分前の00:40(UTC)に作成
西/北西の風 5kt
気温 30°C
湿度 70%
気圧 1008 hPa
視程: 16.1km
高度2400ftの雲は散在している
高度3800ftの雲は散在している
高度4600ftの千切れ雲あり

METAR: PKWA 210040Z AUTO 29005KT 10SM SCT024 SCT038 BKN046 30/24 A2978 RMK AO2 T03000242

時間: 12:53 (00:53 UTC)

予報

当レポートは1時間17分前の23:36(UTC)に作成
予報は21日の 00時(UTC)から 21日の 24時(UTC)まで有効
の風 4kt
視程: 10km
高度2200ftの雲は散在している
高度5000ftの千切れ雲あり
高度10000ftの曇り
近辺でにわか雨
21日の 00時(UTC)から 21日の 04時(UTC)まで一時的に
高度2000ftの千切れ雲あり
高度3000ftの千切れ雲あり
高度8000ftの曇り
弱いにわか雨

TAF: PKWA 202336Z 2100/2124 19004KT P6SM VCSH SCT022 BKN050 OVC100 TEMPO 2100/2104 -SHRA BKN020 BKN030 OVC080

4,000以上の空港の気象観測と天気予報(METAR報とTAF報)

利用可能な観測所は地図上に黄色い丸と赤い丸で示す。

丸の上にカーソルを重ねると観測所名を参照できる。

次にクリックすると気象観測と天気予報を参照できる。

マップの切り替え:黒色「×」印の緑ボタンをクリックして拡大、「-」印の緑ボタンをクリックして縮小、緑色の三角印をクリックして隣りの地図に切り替え


METAR-TAF: